createdAt,value
2022-09-16T00:00:08.743Z,73.15917969
2022-09-16T00:01:12.027Z,73.11425781
2022-09-16T00:02:12.338Z,72.93359375
2022-09-16T00:03:16.149Z,72.6953125
2022-09-16T00:04:13.414Z,72.73828125
2022-09-16T00:05:16.216Z,72.91796875
2022-09-16T00:06:10.675Z,72.92675781
2022-09-16T00:07:14.046Z,72.72558594
2022-09-16T00:08:16.163Z,72.49902344
2022-09-16T00:09:14.544Z,72.99414063
2022-09-16T00:10:17.391Z,73.25976563
2022-09-16T00:11:14.190Z,73.24511719
2022-09-16T00:12:18.295Z,73.33398438
2022-09-16T00:14:22.051Z,73.35351563
2022-09-16T00:15:21.459Z,73.48828125
2022-09-16T00:16:20.695Z,73.00195313
2022-09-16T00:17:22.136Z,73.36230469
2022-09-16T00:18:49.342Z,73.32910156
2022-09-16T00:19:28.632Z,73.72851563
2022-09-16T00:20:32.528Z,73.52929688
2022-09-16T00:21:33.512Z,73.47265625
2022-09-16T00:22:31.624Z,73.47460938
2022-09-16T00:24:32.684Z,73.17578125
2022-09-16T00:25:33.876Z,73.54785156
2022-09-16T00:26:39.840Z,73.51367188
2022-09-16T00:27:43.953Z,73.83007813
2022-09-16T00:28:41.387Z,73.55566406
2022-09-16T00:29:41.936Z,73.609375
2022-09-16T00:30:37.266Z,73.74316406
2022-09-16T00:31:37.972Z,73.87890625
2022-09-16T00:33:47.005Z,73.1484375
2022-09-16T00:34:30.160Z,73.42285156
2022-09-16T00:35:31.916Z,73.24316406
2022-09-16T00:36:31.923Z,73.3359375
2022-09-16T00:37:27.284Z,73.55859375
2022-09-16T00:38:29.400Z,73.29980469
2022-09-16T00:39:28.838Z,73.671875
2022-09-16T00:40:24.241Z,73.82714844
2022-09-16T00:41:24.158Z,73.64648438
2022-09-16T00:42:21.655Z,73.60742188
2022-09-16T00:44:20.354Z,73.81152344
2022-09-16T00:45:23.555Z,73.69824219
2022-09-16T00:46:19.064Z,73.37695313
2022-09-16T00:47:19.574Z,73.73925781
2022-09-16T00:49:23.923Z,74.32714844
2022-09-16T00:50:18.316Z,74.04394531
2022-09-16T00:51:19.202Z,73.47851563
2022-09-16T00:52:21.300Z,73.76171875
2022-09-16T00:53:15.446Z,73.86328125
2022-09-16T00:54:15.240Z,73.51269531
2022-09-16T00:55:11.029Z,73.33203125
2022-09-16T00:56:12.628Z,73.75878906
2022-09-16T00:57:11.729Z,73.55371094
2022-09-16T00:59:21.907Z,73.56054688
2022-09-16T01:00:20.363Z,73.78320313
2022-09-16T01:01:24.579Z,74.05175781
2022-09-16T01:02:22.775Z,73.89355469
2022-09-16T01:04:23.374Z,74.32519531
2022-09-16T01:05:15.891Z,74.60742188
2022-09-16T01:06:18.475Z,74.03417969
2022-09-16T01:07:11.552Z,74.07617188
2022-09-16T01:08:11.783Z,74.18261719
2022-09-16T01:09:06.673Z,74.31738281
2022-09-16T01:10:07.384Z,74.16992188
2022-09-16T01:11:07.460Z,74.20214844
2022-09-16T01:12:08.075Z,73.9609375
2022-09-16T01:13:15.075Z,74.01074219
2022-09-16T01:14:11.192Z,74.31347656
2022-09-16T01:15:58.206Z,74.14941406
2022-09-16T01:16:40.916Z,74.20214844
2022-09-16T01:18:47.091Z,73.98046875
2022-09-16T01:19:48.686Z,74.03320313
2022-09-16T01:20:47.855Z,73.78125
2022-09-16T01:21:55.505Z,74.2421875
2022-09-16T01:23:53.366Z,74.11132813
2022-09-16T01:24:56.066Z,74.4140625
2022-09-16T01:25:52.393Z,74.15234375
2022-09-16T01:26:54.107Z,74.38964844
2022-09-16T01:27:50.232Z,74.50292969
2022-09-16T01:28:52.497Z,74.43261719
2022-09-16T01:29:55.197Z,74.46679688
2022-09-16T01:30:51.571Z,74.40527344
2022-09-16T01:31:58.889Z,74.37304688
2022-09-16T01:32:57.013Z,74.55664063
2022-09-16T01:34:03.976Z,74.64453125
2022-09-16T01:35:00.723Z,74.37011719
2022-09-16T01:36:06.927Z,74.16503906
2022-09-16T01:37:11.438Z,74.02929688
2022-09-16T01:38:06.771Z,74.25683594
2022-09-16T01:39:05.102Z,74.390625
2022-09-16T01:40:07.007Z,74.60449219
2022-09-16T01:41:06.161Z,74.72753906
2022-09-16T01:42:07.903Z,74.92871094
2022-09-16T01:44:14.528Z,74.43164063
2022-09-16T01:45:14.353Z,74.32421875
2022-09-16T01:46:16.020Z,74.70507813
2022-09-16T01:47:26.286Z,74.55175781
2022-09-16T01:49:20.864Z,74.9296875
2022-09-16T01:50:21.071Z,74.71484375
2022-09-16T01:51:21.440Z,74.89257813
2022-09-16T01:52:31.707Z,74.97949219
2022-09-16T01:55:05.873Z,74.53613281
2022-09-16T01:57:16.481Z,72.30273438
2022-09-16T01:57:58.387Z,71.9453125
2022-09-16T01:58:55.631Z,71.98925781
2022-09-16T01:59:53.740Z,71.76367188
2022-09-16T02:00:48.352Z,72.36230469
2022-09-16T02:01:51.881Z,72.6328125
2022-09-16T02:03:50.585Z,73.03125
2022-09-16T02:04:49.768Z,73.38476563
2022-09-16T02:05:48.051Z,73.171875
2022-09-16T02:06:46.011Z,73.62988281
2022-09-16T02:08:40.113Z,73.97460938
2022-09-16T02:09:44.587Z,73.58496094
2022-09-16T02:10:37.040Z,73.89746094
2022-09-16T02:11:38.805Z,73.99902344
2022-09-16T02:12:40.567Z,74.40332031
2022-09-16T02:14:45.679Z,74.21484375
2022-09-16T02:15:44.247Z,74.15625
2022-09-16T02:16:48.137Z,74.38769531
2022-09-16T02:18:46.341Z,74.72363281
2022-09-16T02:19:47.402Z,74.67675781
2022-09-16T02:20:49.670Z,74.58398438
2022-09-16T02:21:45.628Z,74.82226563
2022-09-16T02:22:49.737Z,74.76953125
2022-09-16T02:24:34.209Z,74.29394531
2022-09-16T02:25:36.570Z,74.40332031
2022-09-16T02:26:30.866Z,74.74316406
2022-09-16T02:27:30.226Z,74.15527344
2022-09-16T02:29:26.509Z,73.99023438
2022-09-16T02:30:24.370Z,73.95507813
2022-09-16T02:31:18.699Z,73.99707031
2022-09-16T02:32:16.218Z,74.13085938
2022-09-16T02:33:10.535Z,73.93847656
2022-09-16T02:34:08.789Z,73.91308594
2022-09-16T02:35:05.133Z,74.30761719
2022-09-16T02:35:58.602Z,74.27050781
2022-09-16T02:37:04.154Z,73.98632813
2022-09-16T02:38:00.027Z,74.16992188
2022-09-16T02:40:01.642Z,73.30273438
2022-09-16T02:40:44.178Z,73.49511719
2022-09-16T02:41:45.706Z,73.42773438
2022-09-16T02:42:58.497Z,72.90625
2022-09-16T02:43:57.627Z,72.38769531
2022-09-16T02:44:58.827Z,72.55957031
2022-09-16T02:45:57.994Z,73.10644531
2022-09-16T02:46:58.652Z,73.27929688
2022-09-16T02:49:04.797Z,73.61425781
2022-09-16T02:49:59.185Z,73.98339844
2022-09-16T02:51:07.324Z,73.60449219
2022-09-16T02:52:05.292Z,73.50878906
2022-09-16T02:54:03.098Z,73.39453125
2022-09-16T02:55:02.150Z,73.81933594
2022-09-16T02:55:56.502Z,73.37695313
2022-09-16T02:56:52.708Z,73.65722656
2022-09-16T02:58:48.305Z,73.39550781
2022-09-16T02:59:51.943Z,74.03515625
2022-09-16T03:00:49.078Z,73.97558594
2022-09-16T03:01:52.360Z,73.53515625
2022-09-16T03:02:47.091Z,73.78320313
2022-09-16T03:03:46.861Z,73.48925781
2022-09-16T03:04:44.029Z,73.39746094
2022-09-16T03:05:45.278Z,73.609375
2022-09-16T03:06:43.505Z,73.61816406
2022-09-16T03:07:42.146Z,73.96679688
2022-09-16T03:09:36.044Z,73.6484375
2022-09-16T03:10:31.216Z,74.10058594
2022-09-16T03:11:34.398Z,73.74707031
2022-09-16T03:12:26.501Z,74.0625
2022-09-16T03:14:21.297Z,73.734375
2022-09-16T03:15:20.096Z,74.38867188
2022-09-16T03:16:19.420Z,74.58984375
2022-09-16T03:17:21.733Z,74.42089844
2022-09-16T03:19:39.398Z,73.79882813
2022-09-16T03:20:20.454Z,74.10546875
2022-09-16T03:21:17.877Z,73.82617188
2022-09-16T03:22:17.753Z,74.04101563
2022-09-16T03:24:17.366Z,74.296875
2022-09-16T03:25:14.604Z,74.3046875
2022-09-16T03:26:17.691Z,74.45019531
2022-09-16T03:27:13.087Z,74.17578125
2022-09-16T03:28:14.682Z,74.75390625
2022-09-16T03:29:10.007Z,74.9765625
2022-09-16T03:30:10.999Z,74.8828125
2022-09-16T03:31:07.369Z,74.91503906
2022-09-16T03:32:07.644Z,74.89257813
2022-09-16T03:34:07.334Z,74.97363281
2022-09-16T03:35:02.996Z,75.12695313
2022-09-16T03:36:04.918Z,74.87890625
2022-09-16T03:37:02.948Z,74.95605469
2022-09-16T03:39:00.527Z,74.90820313
2022-09-16T03:40:03.733Z,75.13085938
2022-09-16T03:40:59.055Z,75.05175781
2022-09-16T03:42:01.375Z,75.27539063
2022-09-16T03:43:04.681Z,75.11914063
2022-09-16T03:44:03.043Z,75.17089844
2022-09-16T03:44:59.183Z,75.10839844
2022-09-16T03:45:57.288Z,74.93847656
2022-09-16T03:46:57.066Z,75.11914063
2022-09-16T03:47:52.326Z,74.99707031
2022-09-16T03:48:54.440Z,74.59960938
2022-09-16T03:49:56.318Z,74.92285156
2022-09-16T03:50:52.880Z,75.05664063
2022-09-16T03:51:53.349Z,74.88378906
2022-09-16T03:53:53.871Z,75.40820313
2022-09-16T03:55:42.990Z,74.78320313
2022-09-16T03:56:29.535Z,74.44628906
2022-09-16T03:57:30.429Z,74.32519531
2022-09-16T03:58:34.867Z,74.34863281
2022-09-16T03:59:32.420Z,74.53515625
2022-09-16T04:00:36.452Z,74.65625
2022-09-16T04:01:33.126Z,74.80957031
2022-09-16T04:02:35.044Z,75.00195313
2022-09-16T04:03:33.380Z,75.15820313
2022-09-16T04:04:33.473Z,74.94042969
2022-09-16T04:05:33.577Z,74.76855469
2022-09-16T04:06:35.672Z,74.90039063
2022-09-16T04:07:33.657Z,75.01660156
2022-09-16T04:09:30.758Z,75.16210938
2022-09-16T04:10:31.323Z,75.22949219
2022-09-16T04:11:30.587Z,75.20410156
2022-09-16T04:12:33.744Z,75.078125
2022-09-16T04:14:33.289Z,75.14160156
2022-09-16T04:15:36.694Z,75.3203125
2022-09-16T04:16:34.819Z,75.23828125
2022-09-16T04:17:33.829Z,75.23828125
2022-09-16T04:19:33.656Z,75.109375
2022-09-16T04:20:37.133Z,75.40039063
2022-09-16T04:21:31.747Z,75.07324219
2022-09-16T04:22:34.710Z,75.18847656
2022-09-16T04:24:35.832Z,75.19042969
2022-09-16T04:25:37.220Z,75.13183594
2022-09-16T04:26:40.171Z,75.546875
2022-09-16T04:27:34.450Z,75.3125
2022-09-16T04:28:36.569Z,75.1640625
2022-09-16T04:29:39.821Z,75.06738281
2022-09-16T04:30:38.382Z,75.10058594
2022-09-16T04:31:54.484Z,74.34472656
2022-09-16T04:32:35.902Z,74.84472656
2022-09-16T04:34:34.303Z,74.94042969
2022-09-16T04:35:29.518Z,74.65820313
2022-09-16T04:36:30.772Z,74.62011719
2022-09-16T04:37:27.276Z,74.82128906
2022-09-16T04:38:28.129Z,74.59765625
2022-09-16T04:39:23.587Z,74.73925781
2022-09-16T04:40:27.681Z,74.0625
2022-09-16T04:41:22.800Z,74.24121094
2022-09-16T04:42:28.337Z,74.44140625
2022-09-16T04:44:25.686Z,74.81835938
2022-09-16T04:45:22.754Z,74.69238281
2022-09-16T04:46:22.602Z,74.171875
2022-09-16T04:47:18.001Z,74.17089844
2022-09-16T04:49:23.311Z,74.39746094
2022-09-16T04:50:27.009Z,74.43066406
2022-09-16T04:51:30.328Z,73.86230469
2022-09-16T04:52:27.932Z,74.328125
2022-09-16T04:53:27.222Z,73.93164063
2022-09-16T04:54:25.931Z,73.84960938
2022-09-16T04:55:26.781Z,73.92871094
2022-09-16T04:56:32.874Z,74.265625
2022-09-16T04:57:35.817Z,74.04980469
2022-09-16T04:58:30.440Z,74.35742188
2022-09-16T04:59:29.103Z,74.32421875
2022-09-16T05:00:28.997Z,74.50488281
2022-09-16T05:01:25.767Z,73.96289063
2022-09-16T05:02:34.348Z,74.29003906
2022-09-16T05:04:30.679Z,74.70507813
2022-09-16T05:06:19.722Z,74.52050781
2022-09-16T05:06:20.804Z,74.52050781
2022-09-16T05:06:55.935Z,74.37792969
2022-09-16T05:09:02.801Z,73.55664063
2022-09-16T05:09:58.199Z,73.36035156
2022-09-16T05:10:57.694Z,73.60546875
2022-09-16T05:11:53.352Z,74.109375
2022-09-16T05:13:48.573Z,73.91796875
2022-09-16T05:14:54.594Z,73.84667969
2022-09-16T05:15:51.297Z,74.17089844
2022-09-16T05:16:52.868Z,74.15722656
2022-09-16T05:18:50.764Z,74.1875
2022-09-16T05:19:46.774Z,74.06445313
2022-09-16T05:20:47.004Z,73.68066406
2022-09-16T05:21:42.198Z,73.89355469
2022-09-16T05:22:42.154Z,74.17382813
2022-09-16T05:23:37.488Z,74.18554688
2022-09-16T05:24:44.491Z,74.375
2022-09-16T05:25:41.453Z,74.49609375
2022-09-16T05:26:41.834Z,74.35839844
2022-09-16T05:27:37.021Z,74.7421875
2022-09-16T05:29:36.947Z,74.25683594
2022-09-16T05:30:35.788Z,74.18945313
2022-09-16T05:31:30.273Z,74.58496094
2022-09-16T05:32:30.241Z,74.12011719
2022-09-16T05:34:22.267Z,74.1875
2022-09-16T05:35:22.997Z,73.84765625
2022-09-16T05:36:17.289Z,73.75390625
2022-09-16T05:37:27.051Z,73.58300781
2022-09-16T05:39:24.867Z,74.20605469
2022-09-16T05:40:16.416Z,74.35449219
2022-09-16T05:41:19.264Z,73.70019531
2022-09-16T05:42:11.880Z,74.22167969
2022-09-16T05:44:14.172Z,74.08886719
2022-09-16T05:45:10.665Z,74.03417969
2022-09-16T05:46:57.623Z,74.03027344
2022-09-16T05:47:40.916Z,74.1171875
2022-09-16T05:49:47.305Z,73.84570313
2022-09-16T05:50:48.242Z,74.18164063
2022-09-16T05:51:46.293Z,74.32128906
2022-09-16T05:52:44.014Z,74.35546875
2022-09-16T05:53:46.311Z,73.92382813
2022-09-16T05:54:46.971Z,74.24609375
2022-09-16T05:55:43.457Z,74.31347656
2022-09-16T05:56:44.870Z,74.66015625
2022-09-16T05:57:42.036Z,74.85253906
2022-09-16T05:58:44.110Z,75.01074219
2022-09-16T05:59:46.355Z,74.91894531
2022-09-16T06:00:42.801Z,75.03320313
2022-09-16T06:01:44.637Z,75.00878906
2022-09-16T06:02:42.020Z,75.078125
2022-09-16T06:04:41.552Z,74.21972656
2022-09-16T06:05:45.798Z,74.78515625
2022-09-16T06:06:40.605Z,74.671875
2022-09-16T06:07:42.269Z,74.81152344
2022-09-16T06:09:41.550Z,74.61816406
2022-09-16T06:10:39.519Z,74.99902344
2022-09-16T06:11:39.544Z,74.95410156
2022-09-16T06:12:41.661Z,75.10253906
2022-09-16T06:14:39.958Z,75.02148438
2022-09-16T06:15:38.751Z,74.7734375
2022-09-16T06:16:42.776Z,75.40527344
2022-09-16T06:17:37.623Z,75.10253906
2022-09-16T06:18:44.954Z,75.34277344
2022-09-16T06:19:38.622Z,75.08300781
2022-09-16T06:20:38.931Z,75.00390625
2022-09-16T06:22:42.493Z,74.64941406
2022-09-16T06:24:21.135Z,74.81152344
2022-09-16T06:25:21.914Z,74.84667969
2022-09-16T06:26:16.372Z,74.70996094
2022-09-16T06:27:16.150Z,74.70703125
2022-09-16T06:28:11.337Z,74.83007813
2022-09-16T06:29:11.139Z,74.87207031
2022-09-16T06:30:06.439Z,74.58300781
2022-09-16T06:31:06.482Z,74.63964844
2022-09-16T06:32:00.911Z,74.99804688
2022-09-16T06:33:02.741Z,74.875
2022-09-16T06:33:57.972Z,74.96386719
2022-09-16T06:34:58.120Z,74.88476563
2022-09-16T06:35:53.375Z,74.89453125
2022-09-16T06:36:52.782Z,75.02929688
2022-09-16T06:37:48.101Z,75.48339844
2022-09-16T06:38:48.470Z,75.39355469
2022-09-16T06:39:48.640Z,75.60449219
2022-09-16T06:40:41.043Z,75.34667969
2022-09-16T06:41:47.934Z,75.08496094
2022-09-16T06:42:42.187Z,75.49609375
2022-09-16T06:44:44.837Z,75.19042969
2022-09-16T06:45:44.621Z,74.98339844
2022-09-16T06:46:40.004Z,74.67871094
2022-09-16T06:47:41.950Z,75.13085938
2022-09-16T06:48:38.451Z,74.63476563
2022-09-16T06:49:41.237Z,75.00585938
2022-09-16T06:50:33.896Z,75.15332031
2022-09-16T06:51:31.000Z,75.14160156
2022-09-16T06:52:30.554Z,75.00585938
2022-09-16T06:54:24.281Z,75.41308594
2022-09-16T06:55:28.602Z,75.09179688
2022-09-16T06:56:31.400Z,75.26269531
2022-09-16T06:57:23.497Z,75.56640625
2022-09-16T06:59:20.133Z,75.35644531
2022-09-16T07:01:04.361Z,75.01855469
2022-09-16T07:01:48.413Z,75.17773438
2022-09-16T07:02:46.746Z,75.17285156
2022-09-16T07:03:45.793Z,75.21875
2022-09-16T07:04:41.059Z,75.26171875
2022-09-16T07:05:39.638Z,74.96777344
2022-09-16T07:07:08.134Z,75.10058594
2022-09-16T07:07:34.804Z,74.74511719
2022-09-16T07:09:27.501Z,75.015625
2022-09-16T07:10:27.057Z,74.73144531
2022-09-16T07:11:22.652Z,74.51855469
2022-09-16T07:12:23.456Z,74.70996094
2022-09-16T07:14:18.356Z,74.96875
2022-09-16T07:15:13.682Z,74.80761719
2022-09-16T07:16:14.503Z,75.15917969
2022-09-16T07:17:09.662Z,74.44726563
2022-09-16T07:18:11.042Z,74.68457031
2022-09-16T07:19:04.669Z,74.34765625
2022-09-16T07:20:05.653Z,74.11914063
2022-09-16T07:21:00.431Z,74.78808594
2022-09-16T07:22:00.341Z,75.04589844
2022-09-16T07:22:59.440Z,74.56152344
2022-09-16T07:23:54.570Z,74.31445313
2022-09-16T07:24:56.235Z,74.734375
2022-09-16T07:25:51.188Z,74.57910156
2022-09-16T07:26:53.197Z,74.71972656
2022-09-16T07:27:45.644Z,74.46289063
2022-09-16T07:29:44.487Z,74.20410156
2022-09-16T07:30:37.190Z,74.09277344
2022-09-16T07:31:39.203Z,73.92578125
2022-09-16T07:33:23.271Z,73.6953125
2022-09-16T07:34:04.432Z,73.27441406
2022-09-16T07:35:00.318Z,73.47265625
2022-09-16T07:35:59.995Z,73.17871094
2022-09-16T07:36:55.261Z,73.34863281
2022-09-16T07:38:50.239Z,73.31152344
2022-09-16T07:39:50.960Z,73.42285156
2022-09-16T07:40:46.121Z,73.46679688
2022-09-16T07:41:47.609Z,72.99023438
2022-09-16T07:42:40.047Z,73.43164063
2022-09-16T07:43:44.245Z,73.28710938
2022-09-16T07:44:38.753Z,72.80078125
2022-09-16T07:45:36.293Z,72.89160156
2022-09-16T07:46:38.811Z,73.23046875
2022-09-16T07:47:31.129Z,73.42285156
2022-09-16T07:48:35.079Z,72.73535156
2022-09-16T07:49:30.401Z,73.3984375
2022-09-16T07:50:22.865Z,73.59472656
2022-09-16T07:51:25.734Z,73.81738281
2022-09-16T07:52:18.185Z,73.171875
2022-09-16T07:54:13.709Z,72.61035156
2022-09-16T07:55:16.288Z,71.84375
2022-09-16T07:56:09.022Z,72.02636719
2022-09-16T07:57:11.288Z,71.97070313
2022-09-16T07:58:03.656Z,71.69921875
2022-09-16T07:59:03.575Z,71.63378906
2022-09-16T07:59:58.856Z,71.57714844
2022-09-16T08:01:04.005Z,71.546875
2022-09-16T08:01:05.167Z,71.546875
2022-09-16T08:01:57.602Z,71.67871094
2022-09-16T08:03:55.925Z,71.57128906
2022-09-16T08:04:51.066Z,71.41113281
2022-09-16T08:05:50.580Z,71.41894531
2022-09-16T08:06:45.878Z,71.54394531
2022-09-16T08:07:43.246Z,72.1328125
2022-09-16T08:08:42.881Z,71.87207031
2022-09-16T08:10:07.744Z,71.48046875
2022-09-16T08:10:48.165Z,71.22558594
2022-09-16T08:11:47.271Z,71.16894531
2022-09-16T08:12:46.641Z,71.59570313
2022-09-16T08:13:43.196Z,71.44140625
2022-09-16T08:14:45.201Z,71.22460938
2022-09-16T08:15:42.131Z,71.16796875
2022-09-16T08:16:43.466Z,71.20507813
2022-09-16T08:17:39.909Z,70.89648438
2022-09-16T08:19:38.417Z,70.65625
2022-09-16T08:20:43.154Z,70.41894531
2022-09-16T08:21:36.831Z,70.15820313
2022-09-16T08:22:36.649Z,68.73828125
2022-09-16T08:23:38.213Z,68.48144531
2022-09-16T08:24:35.575Z,68.84375
2022-09-16T08:25:37.720Z,68.66113281
2022-09-16T08:26:35.141Z,68.26367188
2022-09-16T08:27:36.266Z,68.40039063
2022-09-16T08:28:40.162Z,68.19824219
2022-09-16T08:28:51.063Z,68.19824219
2022-09-16T08:29:04.670Z,68.19824219
2022-09-16T08:29:34.775Z,68.08886719
2022-09-16T08:30:31.354Z,67.78125
2022-09-16T08:31:34.184Z,67.59277344
2022-09-16T08:32:30.632Z,67.48925781
2022-09-16T08:33:32.091Z,67.18066406
2022-09-16T08:34:29.430Z,67.89550781
2022-09-16T08:35:31.067Z,67.34472656
2022-09-16T08:36:27.182Z,67.46191406
2022-09-16T08:37:29.927Z,67.91503906
2022-09-16T08:38:24.121Z,68.03710938
2022-09-16T08:39:26.750Z,67.90917969
2022-09-16T08:41:20.368Z,67.78613281
2022-09-16T08:42:15.630Z,67.69140625
2022-09-16T08:44:14.509Z,66.71386719
2022-09-16T08:45:10.247Z,66.70996094
2022-09-16T08:46:13.622Z,67.77539063
2022-09-16T08:47:07.189Z,67.59667969
2022-09-16T08:48:10.461Z,67.69140625
2022-09-16T08:49:04.155Z,67.77636719
2022-09-16T08:50:43.445Z,67.30078125
2022-09-16T08:51:42.639Z,66.59375
2022-09-16T08:52:39.934Z,65.55078125
2022-09-16T08:55:19.085Z,65.28417969
2022-09-16T08:57:30.365Z,63.76269531
2022-09-16T08:59:05.514Z,63.00488281
2022-09-16T09:00:04.263Z,63.47167969
2022-09-16T09:00:57.974Z,64.32324219
2022-09-16T09:01:57.257Z,63.55566406
2022-09-16T09:02:50.821Z,63.41210938
2022-09-16T09:03:48.888Z,63.34472656
2022-09-16T09:04:42.043Z,62.84277344
2022-09-16T09:05:41.549Z,63.05957031
2022-09-16T09:06:36.782Z,63.75390625
2022-09-16T09:07:36.980Z,64.40527344
2022-09-16T09:09:26.602Z,64.74902344
2022-09-16T09:10:20.763Z,65.50488281
2022-09-16T09:11:15.714Z,66.02539063
2022-09-16T09:12:16.862Z,68.77441406
2022-09-16T09:13:08.638Z,68.77441406
2022-09-16T09:14:06.186Z,68.07421875
2022-09-16T09:15:01.051Z,68.76953125
2022-09-16T09:15:58.442Z,68.96191406
2022-09-16T09:16:55.307Z,69.08398438
2022-09-16T09:17:48.650Z,68.08300781
2022-09-16T09:19:39.837Z,66.61621094
2022-09-16T09:20:37.789Z,66.60253906
2022-09-16T09:21:30.809Z,66.109375
2022-09-16T09:22:27.714Z,66.17382813
2022-09-16T09:24:18.935Z,66.90722656
2022-09-16T09:25:19.380Z,67.10742188
2022-09-16T09:26:10.545Z,67.32324219
2022-09-16T09:27:11.226Z,66.77539063
2022-09-16T09:28:02.287Z,67.47167969
2022-09-16T09:29:00.153Z,65.24023438
2022-09-16T09:29:53.527Z,65.54589844
2022-09-16T09:30:51.251Z,65.2578125
2022-09-16T09:31:44.732Z,65.23046875
2022-09-16T09:32:49.424Z,65.69726563
2022-09-16T09:34:24.373Z,66.45605469
2022-09-16T09:35:25.683Z,66.59570313
2022-09-16T09:36:18.059Z,66.45117188
2022-09-16T09:37:19.976Z,66.63574219
2022-09-16T09:38:12.598Z,66.9765625
2022-09-16T09:39:51.607Z,67.02636719
2022-09-16T09:42:04.182Z,65.98535156
2022-09-16T09:42:45.407Z,66.29003906
2022-09-16T09:44:44.512Z,65.54101563
2022-09-16T09:45:46.118Z,65.25585938
2022-09-16T09:46:42.440Z,64.75097656
2022-09-16T09:47:41.075Z,64.51171875
2022-09-16T09:48:42.267Z,64.56152344
2022-09-16T09:49:38.595Z,64.80371094
2022-09-16T09:50:38.819Z,65.17089844
2022-09-16T09:51:35.263Z,64.40722656
2022-09-16T09:52:36.470Z,64.2265625
2022-09-16T09:54:31.338Z,64.07519531
2022-09-16T09:55:31.553Z,62.36621094
2022-09-16T09:56:26.920Z,63.08398438
2022-09-16T09:57:26.651Z,61.56933594
2022-09-16T09:58:21.993Z,62.84179688
2022-09-16T09:59:19.457Z,62.75683594
2022-09-16T10:00:19.402Z,61.98828125
2022-09-16T10:01:14.369Z,60.65820313
2022-09-16T10:02:12.048Z,60.91503906
2022-09-16T10:03:14.824Z,61.04589844
2022-09-16T10:04:10.202Z,60.68847656
2022-09-16T10:05:07.799Z,61.48242188
2022-09-16T10:06:07.567Z,60.8515625
2022-09-16T10:08:58.005Z,61.40429688
2022-09-16T10:09:55.924Z,61.65527344
2022-09-16T10:11:22.790Z,62.14453125
2022-09-16T10:13:06.447Z,61.8203125
2022-09-16T10:14:42.401Z,60.73828125
2022-09-16T10:15:41.957Z,61.83105469
2022-09-16T10:16:35.924Z,61.56152344
2022-09-16T10:17:34.650Z,61.80175781
2022-09-16T10:18:31.974Z,60.60449219
2022-09-16T10:19:30.894Z,59.94726563
2022-09-16T10:20:26.116Z,60.55957031
2022-09-16T10:21:26.051Z,60.83691406
2022-09-16T10:22:20.261Z,59.74804688
2022-09-16T10:23:22.902Z,59.92578125
2022-09-16T10:24:20.267Z,60.65234375
2022-09-16T10:25:11.857Z,60.95019531
2022-09-16T10:26:13.404Z,61.01757813
2022-09-16T10:27:06.987Z,60.89257813
2022-09-16T10:28:05.254Z,61.37109375
2022-09-16T10:29:00.580Z,61.21386719
2022-09-16T10:29:55.958Z,60.72265625
2022-09-16T10:30:55.995Z,60.51855469
2022-09-16T10:31:50.666Z,60.08300781
2022-09-16T10:32:49.105Z,61.12011719
2022-09-16T10:33:44.523Z,60.60742188
2022-09-16T10:34:48.484Z,60.93457031
2022-09-16T10:35:42.728Z,61.26464844
2022-09-16T10:36:39.876Z,61.22851563
2022-09-16T10:37:35.465Z,61.27929688
2022-09-16T10:38:34.008Z,61.09375
2022-09-16T10:39:33.869Z,60.90820313
2022-09-16T10:40:26.293Z,61.25
2022-09-16T10:41:27.537Z,60.52929688
2022-09-16T10:42:20.922Z,60.31445313
2022-09-16T10:43:18.895Z,60.40234375
2022-09-16T10:44:17.186Z,60.86035156
2022-09-16T10:45:50.455Z,60.92089844
2022-09-16T10:46:46.246Z,60.46777344
2022-09-16T10:47:46.828Z,60.3203125
2022-09-16T10:49:23.718Z,60.51269531
2022-09-16T10:50:03.724Z,60.49023438
2022-09-16T10:51:01.904Z,59.87109375
2022-09-16T10:52:00.713Z,59.27050781
2022-09-16T10:52:56.272Z,60.53125
2022-09-16T10:54:50.860Z,59.46875
2022-09-16T10:55:49.934Z,59.14550781
2022-09-16T10:56:42.473Z,59.37988281
2022-09-16T10:57:42.253Z,59.93554688
2022-09-16T10:58:37.992Z,59.71582031
2022-09-16T10:59:37.653Z,59.20898438
2022-09-16T11:00:32.202Z,59.51464844
2022-09-16T11:01:32.687Z,59.66015625
2022-09-16T11:02:26.579Z,58.9609375
2022-09-16T11:03:28.580Z,60.25976563
2022-09-16T11:04:20.933Z,60.703125
2022-09-16T11:05:25.540Z,60.68066406
2022-09-16T11:06:18.312Z,60.82617188
2022-09-16T11:07:13.386Z,60.56835938
2022-09-16T11:09:08.417Z,61.60644531
2022-09-16T11:10:10.976Z,61.64355469
2022-09-16T11:11:04.913Z,61.38183594
2022-09-16T11:12:05.381Z,61.55664063
2022-09-16T11:13:03.482Z,61.69628906
2022-09-16T11:13:56.121Z,61.3359375
2022-09-16T11:14:59.026Z,60.38183594
2022-09-16T11:15:51.587Z,60.28027344
2022-09-16T11:16:51.411Z,60.69238281
2022-09-16T11:17:46.828Z,60.11328125
2022-09-16T11:18:50.702Z,61.03710938
2022-09-16T11:18:53.030Z,61.03710938
2022-09-16T11:19:42.243Z,61.2109375
2022-09-16T11:20:45.993Z,61.2578125
2022-09-16T11:21:41.021Z,60.28027344
2022-09-16T11:22:35.793Z,60.79394531
2022-09-16T11:23:38.021Z,60.0859375
2022-09-16T11:24:30.851Z,60.95410156
2022-09-16T11:25:33.050Z,61.21679688
2022-09-16T11:26:56.804Z,60.48632813
2022-09-16T11:27:37.071Z,60.38671875
2022-09-16T11:28:36.376Z,60.53808594
2022-09-16T11:29:37.693Z,59.83886719
2022-09-16T11:30:33.127Z,58.98144531
2022-09-16T11:31:32.521Z,58.55761719
2022-09-16T11:32:28.460Z,55.29589844
2022-09-16T11:33:28.096Z,56.32128906
2022-09-16T11:34:24.127Z,56.30957031
2022-09-16T11:35:23.759Z,56.31835938
2022-09-16T11:36:20.248Z,56.38476563
2022-09-16T11:37:22.237Z,57.125
2022-09-16T11:39:14.410Z,58.08007813
2022-09-16T11:40:09.494Z,57.38476563
2022-09-16T11:41:08.963Z,58.0390625
2022-09-16T11:42:04.689Z,57.35546875
2022-09-16T11:43:04.645Z,58.46484375
2022-09-16T11:44:00.023Z,58.15820313
2022-09-16T11:44:59.632Z,58.41601563
2022-09-16T11:45:55.870Z,58.89941406
2022-09-16T11:46:57.023Z,58.9765625
2022-09-16T11:47:52.480Z,60.11328125
2022-09-16T11:49:48.983Z,60.87011719
2022-09-16T11:50:52.309Z,61.06347656
2022-09-16T11:51:44.948Z,61.54199219
2022-09-16T11:52:44.295Z,61.3671875
2022-09-16T11:53:45.542Z,61.4453125
2022-09-16T11:54:40.173Z,60.99609375
2022-09-16T11:55:40.102Z,60.59472656
2022-09-16T11:56:35.542Z,60.37792969
2022-09-16T11:57:36.240Z,60.26367188
2022-09-16T11:58:31.672Z,60.45703125